createdAt,value
2022-08-25T12:46:38.482Z,97016.72
2022-08-25T12:48:57.132Z,97015.94
2022-08-25T12:51:02.633Z,97010.75
2022-08-25T12:53:12.508Z,97018.66
2022-08-25T12:55:15.469Z,97019.34
2022-08-25T12:57:35.113Z,97016.81
2022-08-25T12:59:43.680Z,97014.66
2022-08-25T13:02:09.057Z,97016.66
2022-08-25T13:05:02.685Z,97014.50
2022-08-25T13:07:25.578Z,97008.91
2022-08-25T13:10:01.844Z,97012.88
2022-08-25T13:12:22.999Z,97015.34
2022-08-25T13:14:37.695Z,97019.81
2022-08-25T13:16:40.896Z,97021.06
2022-08-25T13:18:44.893Z,97012.34
2022-08-25T13:21:02.776Z,97009.00
2022-08-25T13:23:05.438Z,96997.56
2022-08-25T13:25:15.538Z,96997.22
2022-08-25T13:27:25.055Z,96999.47
2022-08-25T13:29:29.887Z,96997.97
2022-08-25T13:31:53.858Z,96981.91
2022-08-25T13:34:02.225Z,96993.78
2022-08-25T13:36:23.033Z,96990.00
2022-08-25T13:38:27.932Z,96989.22
2022-08-25T13:40:36.501Z,96994.97
2022-08-25T13:42:42.808Z,96989.47
2022-08-25T13:44:52.012Z,96992.19
2022-08-25T13:47:18.423Z,96991.41
2022-08-25T13:49:27.963Z,96979.50
2022-08-25T13:51:31.900Z,96985.47
2022-08-25T13:53:34.727Z,96983.59
2022-08-25T13:55:51.106Z,96978.47
2022-08-25T13:57:55.138Z,96983.69
2022-08-25T14:00:03.814Z,96982.97
2022-08-25T14:02:07.628Z,96970.50
2022-08-25T14:04:32.517Z,96982.13
2022-08-25T14:06:35.299Z,96980.97
2022-08-25T14:08:41.525Z,96974.59
2022-08-25T14:10:45.884Z,96974.81
2022-08-25T14:12:49.707Z,96966.94
2022-08-25T14:14:59.738Z,96966.00
2022-08-25T14:17:12.124Z,96971.88
2022-08-25T14:19:25.354Z,96967.28
2022-08-25T14:21:32.035Z,96966.72
2022-08-25T14:23:39.199Z,96964.38
2022-08-25T14:25:42.471Z,96964.47
2022-08-25T14:28:06.485Z,96962.50
2022-08-25T14:30:10.642Z,96962.81
2022-08-25T14:32:14.868Z,96957.81
2022-08-25T14:34:20.395Z,96964.84
2022-08-25T14:36:23.345Z,96960.84
2022-08-25T14:38:27.375Z,96963.41
2022-08-25T14:40:34.200Z,96956.72
2022-08-25T14:42:37.075Z,96950.09
2022-08-25T14:44:40.392Z,96952.88
2022-08-25T14:46:46.861Z,96957.69
2022-08-25T14:48:55.501Z,96952.53
2022-08-25T14:51:00.492Z,96946.28
2022-08-25T14:53:04.205Z,96948.56
2022-08-25T14:55:10.138Z,96950.19
2022-08-25T14:57:13.157Z,96943.94
2022-08-25T14:59:15.955Z,96939.78
2022-08-25T15:01:29.629Z,96940.25
2022-08-25T15:03:35.100Z,96934.84
2022-08-25T15:05:37.933Z,96929.03
2022-08-25T15:07:58.239Z,96932.75
2022-08-25T15:10:01.349Z,96939.66
2022-08-25T15:12:05.542Z,96928.44
2022-08-25T15:14:10.747Z,96923.44
2022-08-25T15:16:16.762Z,96929.06
2022-08-25T15:18:24.094Z,96931.31
2022-08-25T15:20:26.671Z,96929.91
2022-08-25T15:22:29.237Z,96935.94
2022-08-25T15:24:37.695Z,96928.84
2022-08-25T15:26:44.706Z,96927.63
2022-08-25T15:28:51.205Z,96932.16
2022-08-25T15:30:53.830Z,96931.34
2022-08-25T15:32:56.412Z,96932.59
2022-08-25T15:34:59.948Z,96925.75
2022-08-25T15:37:08.819Z,96925.38
2022-08-25T15:39:12.215Z,96928.88
2022-08-25T15:41:15.410Z,96926.78
2022-08-25T15:43:18.119Z,96923.47
2022-08-25T15:45:22.046Z,96923.25
2022-08-25T15:47:27.659Z,96919.13
2022-08-25T15:49:33.137Z,96925.25
2022-08-25T15:51:36.230Z,96920.22
2022-08-25T15:53:39.514Z,96915.19
2022-08-25T15:55:42.788Z,96917.53
2022-08-25T15:57:47.382Z,96922.81
2022-08-25T15:59:53.311Z,96914.44
2022-08-25T16:02:00.869Z,96912.84
2022-08-25T16:04:03.898Z,96914.88
2022-08-25T16:06:08.421Z,96905.78
2022-08-25T16:08:19.391Z,96908.00
2022-08-25T16:10:22.483Z,96908.72
2022-08-25T16:12:25.749Z,96908.72
2022-08-25T16:14:30.620Z,96913.28
2022-08-25T16:16:33.790Z,96908.94
2022-08-25T16:18:38.344Z,96914.63
2022-08-25T16:20:44.656Z,96907.75
2022-08-25T16:22:47.653Z,96907.06
2022-08-25T16:24:50.408Z,96907.81
2022-08-25T16:26:56.035Z,96902.81
2022-08-25T16:28:59.447Z,96901.09
2022-08-25T16:31:02.758Z,96901.69
2022-08-25T16:33:06.341Z,96904.63
2022-08-25T16:35:13.001Z,96893.84
2022-08-25T16:37:15.664Z,96892.66
2022-08-25T16:39:18.287Z,96898.03
2022-08-25T16:41:22.953Z,96894.28
2022-08-25T16:43:25.537Z,96891.41
2022-08-25T16:45:28.367Z,96885.19
2022-08-25T16:47:37.742Z,96888.91
2022-08-25T16:49:41.256Z,96881.06
2022-08-25T16:51:45.201Z,96885.78
2022-08-25T16:54:08.452Z,96884.13
2022-08-25T16:56:11.589Z,96884.06
2022-08-25T16:58:14.301Z,96883.66
2022-08-25T17:00:21.742Z,96881.56
2022-08-25T17:02:24.353Z,96885.75
2022-08-25T17:04:32.207Z,96880.25
2022-08-25T17:06:37.784Z,96885.09
2022-08-25T17:08:42.046Z,96878.56
2022-08-25T17:10:46.416Z,96881.78
2022-08-25T17:12:49.368Z,96878.75
2022-08-25T17:14:52.452Z,96881.78
2022-08-25T17:16:55.533Z,96874.84
2022-08-25T17:19:03.908Z,96878.66
2022-08-25T17:21:09.597Z,96883.47
2022-08-25T17:23:13.924Z,96887.13
2022-08-25T17:25:18.432Z,96884.50
2022-08-25T17:27:23.339Z,96889.16
2022-08-25T17:29:26.205Z,96884.94
2022-08-25T17:31:30.746Z,96891.28
2022-08-25T17:33:33.810Z,96876.47
2022-08-25T17:35:39.886Z,96889.13
2022-08-25T17:37:42.537Z,96891.91
2022-08-25T17:39:45.143Z,96886.00
2022-08-25T17:41:49.763Z,96889.75
2022-08-25T17:43:52.595Z,96888.81
2022-08-25T17:45:57.038Z,96888.91
2022-08-25T17:48:00.163Z,96887.97
2022-08-25T17:50:03.073Z,96892.16
2022-08-25T17:52:06.543Z,96893.72
2022-08-25T17:54:09.151Z,96887.41
2022-08-25T17:56:14.619Z,96890.81
2022-08-25T17:58:18.554Z,96899.22
2022-08-25T18:00:22.728Z,96894.56
2022-08-25T18:02:26.628Z,96906.03
2022-08-25T18:04:31.022Z,96899.69
2022-08-25T18:06:33.627Z,96896.91
2022-08-25T18:08:36.285Z,96905.63
2022-08-25T18:10:40.659Z,96906.47
2022-08-25T18:12:44.084Z,96905.34
2022-08-25T18:14:49.323Z,96904.03
2022-08-25T18:16:52.654Z,96903.56
2022-08-25T18:18:57.181Z,96910.59
2022-08-25T18:20:59.830Z,96914.00
2022-08-25T18:23:02.472Z,96912.19
2022-08-25T18:25:08.741Z,96910.22
2022-08-25T18:27:13.567Z,96919.09
2022-08-25T18:29:16.767Z,96910.09
2022-08-25T18:31:21.506Z,96914.09
2022-08-25T18:33:24.332Z,96914.78
2022-08-25T18:35:27.101Z,96920.63
2022-08-25T18:37:47.415Z,96917.31
2022-08-25T18:40:08.919Z,96916.81
2022-08-25T18:42:14.116Z,96917.84
2022-08-25T18:44:17.027Z,96921.38
2022-08-25T18:46:22.589Z,96923.19
2022-08-25T18:48:26.706Z,96926.03
2022-08-25T18:50:36.594Z,96929.22
2022-08-25T18:52:39.208Z,96924.03
2022-08-25T18:54:41.898Z,96923.41
2022-08-25T18:56:44.625Z,96921.38
2022-08-25T18:58:47.675Z,96924.34
2022-08-25T19:00:50.400Z,96925.53
2022-08-25T19:02:57.520Z,96926.34
2022-08-25T19:05:04.757Z,96929.53
2022-08-25T19:07:12.095Z,96928.88
2022-08-25T19:09:15.121Z,96929.53
2022-08-25T19:11:22.229Z,96933.19
2022-08-25T19:13:25.390Z,96937.53
2022-08-25T19:15:28.719Z,96935.00
2022-08-25T19:17:37.478Z,96938.47
2022-08-25T19:19:41.959Z,96934.97
2022-08-25T19:21:45.112Z,96944.50
2022-08-25T19:23:51.347Z,96940.94
2022-08-25T19:25:54.956Z,96936.91
2022-08-25T19:28:00.510Z,96935.53
2022-08-25T19:30:05.772Z,96942.06
2022-08-25T19:32:08.892Z,96936.53
2022-08-25T19:34:19.200Z,96941.50
2022-08-25T19:36:27.997Z,96939.47
2022-08-25T19:38:34.073Z,96937.31
2022-08-25T19:40:38.764Z,96933.28
2022-08-25T19:42:41.529Z,96933.59
2022-08-25T19:44:44.140Z,96940.25
2022-08-25T19:46:47.497Z,96945.06
2022-08-25T19:48:53.339Z,96938.34
2022-08-25T19:50:56.319Z,96940.66
2022-08-25T19:53:00.682Z,96939.50
2022-08-25T19:55:04.520Z,96942.78
2022-08-25T19:57:11.052Z,96940.22
2022-08-25T19:59:17.812Z,96942.63
2022-08-25T20:01:20.549Z,96943.78
2022-08-25T20:03:23.293Z,96943.69
2022-08-25T20:05:25.897Z,96937.66
2022-08-25T20:07:31.177Z,96947.31
2022-08-25T20:09:38.960Z,96946.94
2022-08-25T20:11:43.088Z,96950.22
2022-08-25T20:13:45.674Z,96949.53
2022-08-25T20:15:51.689Z,96945.81
2022-08-25T20:18:00.641Z,96951.75
2022-08-25T20:20:09.319Z,96955.56
2022-08-25T20:22:17.404Z,96953.69
2022-08-25T20:24:38.342Z,96960.44
2022-08-25T20:26:43.186Z,96955.44
2022-08-25T20:28:45.829Z,96957.56
2022-08-25T20:30:48.468Z,96962.38
2022-08-25T20:32:52.448Z,96962.38
2022-08-25T20:34:55.824Z,96956.19
2022-08-25T20:36:58.818Z,96963.78
2022-08-25T20:39:01.493Z,96964.38
2022-08-25T20:41:04.118Z,96960.34
2022-08-25T20:43:11.997Z,96960.94
2022-08-25T20:45:16.937Z,96959.72
2022-08-25T20:47:20.945Z,96960.03
2022-08-25T20:49:26.754Z,96965.41
2022-08-25T20:51:29.571Z,96969.50
2022-08-25T20:53:34.827Z,96967.44
2022-08-25T20:55:38.310Z,96962.56
2022-08-25T20:57:45.116Z,96967.34
2022-08-25T20:59:49.348Z,96965.84
2022-08-25T21:01:52.654Z,96974.47
2022-08-25T21:03:55.317Z,96971.16
2022-08-25T21:05:57.892Z,96974.25
2022-08-25T21:08:01.250Z,96974.69
2022-08-25T21:10:07.204Z,96969.47
2022-08-25T21:12:13.868Z,96980.25
2022-08-25T21:14:17.483Z,96974.00
2022-08-25T21:16:23.780Z,96973.56
2022-08-25T21:18:31.442Z,96980.47
2022-08-25T21:20:35.783Z,96978.78
2022-08-25T21:22:39.205Z,96979.19
2022-08-25T21:24:41.791Z,96983.56
2022-08-25T21:26:49.671Z,96975.13
2022-08-25T21:28:53.443Z,96977.25
2022-08-25T21:30:56.568Z,96977.16
2022-08-25T21:33:00.543Z,96979.13
2022-08-25T21:35:03.571Z,96978.88
2022-08-25T21:37:11.651Z,96975.81
2022-08-25T21:39:15.437Z,96970.94
2022-08-25T21:41:20.994Z,96967.44
2022-08-25T21:43:23.632Z,96978.34
2022-08-25T21:45:26.261Z,96976.25
2022-08-25T21:47:42.112Z,96973.75
2022-08-25T21:49:46.075Z,96979.34
2022-08-25T21:51:59.381Z,96980.34
2022-08-25T21:54:11.838Z,96986.63
2022-08-25T21:56:17.156Z,96972.94
2022-08-25T21:58:22.522Z,96978.25
2022-08-25T22:00:25.994Z,96976.09
2022-08-25T22:02:28.603Z,96979.16
2022-08-25T22:04:32.407Z,96974.41
2022-08-25T22:06:37.082Z,96969.41
2022-08-25T22:08:41.215Z,96969.59
2022-08-25T22:10:44.636Z,96968.28
2022-08-25T22:12:48.526Z,96969.78
2022-08-25T22:14:51.305Z,96972.63
2022-08-25T22:16:54.087Z,96966.22
2022-08-25T22:18:57.101Z,96962.69
2022-08-25T22:21:00.755Z,96963.56
2022-08-25T22:23:20.111Z,96970.38
2022-08-25T22:25:23.958Z,96964.41
2022-08-25T22:27:28.513Z,96965.94
2022-08-25T22:29:32.774Z,96960.06
2022-08-25T22:31:35.895Z,96960.22
2022-08-25T22:33:40.532Z,96970.44
2022-08-25T22:35:44.384Z,96958.81
2022-08-25T22:37:47.617Z,96967.22
2022-08-25T22:39:51.585Z,96962.00
2022-08-25T22:41:55.494Z,96965.94
2022-08-25T22:43:58.875Z,96967.78
2022-08-25T22:46:02.812Z,96957.56
2022-08-25T22:48:07.342Z,96962.28
2022-08-25T22:50:10.884Z,96961.19
2022-08-25T22:52:13.607Z,96962.69
2022-08-25T22:54:16.217Z,96966.34
2022-08-25T22:56:29.614Z,96964.94
2022-08-25T22:58:32.607Z,96963.69
2022-08-25T23:00:39.896Z,96965.94
2022-08-25T23:02:43.499Z,96963.97
2022-08-25T23:04:46.147Z,96954.63
2022-08-25T23:06:49.173Z,96947.06
2022-08-25T23:08:53.699Z,96958.25
2022-08-25T23:10:57.197Z,96950.97
2022-08-25T23:13:01.935Z,96954.44
2022-08-25T23:15:14.110Z,96953.63
2022-08-25T23:17:16.792Z,96950.13
2022-08-25T23:19:19.860Z,96946.47
2022-08-25T23:21:40.978Z,96949.00
2022-08-25T23:23:45.009Z,96954.19
2022-08-25T23:25:47.837Z,96955.16
2022-08-25T23:27:50.468Z,96950.00
2022-08-25T23:29:55.633Z,96953.09
2022-08-25T23:31:59.868Z,96950.69
2022-08-25T23:34:02.875Z,96951.69
2022-08-25T23:36:10.559Z,96946.09
2022-08-25T23:38:13.782Z,96946.34
2022-08-25T23:40:19.128Z,96949.00
2022-08-25T23:42:22.182Z,96945.84
2022-08-25T23:44:25.687Z,96947.91
2022-08-25T23:46:30.026Z,96947.50
2022-08-25T23:48:33.494Z,96942.72
2022-08-25T23:50:40.842Z,96939.06
2022-08-25T23:52:43.635Z,96940.88
2022-08-25T23:54:47.033Z,96935.41
2022-08-25T23:56:51.693Z,96949.50
2022-08-25T23:58:55.129Z,96944.97
